Time;durP1;ratioP1;P1;durP2;ratioP2;P2;SDS_P1;SDS_P2;PMS_P1;PMS_P2;Temp;Humidity;BMP_temperature;BMP_pressure;BME280_temperature;BME280_humidity;BME280_pressure;Samples;Min_cycle;Max_cycle;Signal;HPM_P1;HPM_P2
2021/12/19 02:03:07;;;;;;;2.15;0.82;;;7.20;99.90;;;;;;6246352;23;20050;-78
2021/12/19 02:05:33;;;;;;;3.63;1.42;;;7.00;99.90;;;;;;6219821;23;20016;-78
2021/12/19 02:07:59;;;;;;;;;;;7.10;99.90;;;;;;6221019;23;20051;-79
2021/12/19 02:10:31;;;;;;;1.90;0.90;;;7.90;99.90;;;;;;6222067;23;19919;-79
2021/12/19 02:13:04;;;;;;;2.65;1.00;;;7.20;99.90;;;;;;6224228;23;20023;-79
2021/12/19 02:15:31;;;;;;;3.90;1.15;;;7.20;99.90;;;;;;6223649;23;20020;-79
2021/12/19 02:18:04;;;;;;;2.47;1.10;;;7.20;99.90;;;;;;6222104;23;20110;-79
2021/12/19 02:20:39;;;;;;;2.33;1.08;;;7.20;99.90;;;;;;6218130;23;20043;-79
2021/12/19 02:23:05;;;;;;;1.92;1.02;;;7.20;99.90;;;;;;6246824;23;20095;-79
2021/12/19 02:25:32;;;;;;;2.90;0.82;;;7.20;99.90;;;;;;6243583;23;20020;-79
2021/12/19 08:34:34;;;;;;;9.43;2.10;;;7.40;99.90;;;;;;6249059;22;20024;-79
2021/12/19 08:37:53;;;;;;;10.05;2.50;;;9.20;99.90;;;;;;6214186;23;20029;-79
2021/12/19 09:02:31;;;;;;;12.02;6.45;;;7.30;99.90;;;;;;6192056;23;20074;-81
2021/12/19 09:13:02;;;;;;;5.25;1.88;;;7.50;99.90;;;;;;6213958;23;20066;-84
2021/12/19 09:15:54;;;;;;;5.72;1.80;;;7.50;99.90;;;;;;6186278;23;20843;-82
2021/12/19 09:24:46;;;;;;;12.00;3.03;;;7.60;99.90;;;;;;6244162;22;20411;-86
2021/12/19 09:27:18;;;;;;;7.13;2.30;;;7.60;99.90;;;;;;6206895;22;20108;-86
2021/12/19 09:29:43;;;;;;;7.85;2.40;;;7.60;99.90;;;;;;6184588;23;20520;-86
2021/12/19 09:32:28;;;;;;;;;;;7.50;99.90;;;;;;6189633;23;20013;-83
2021/12/19 09:35:23;;;;;;;9.73;3.47;;;7.00;99.90;;;;;;6189068;23;20332;-87
2021/12/19 09:42:19;;;;;;;11.70;4.18;;;6.60;99.90;;;;;;6118947;23;20018;-80
2021/12/19 09:44:47;;;;;;;9.17;3.40;;;7.50;99.90;;;;;;6011138;23;20059;-85
2021/12/19 09:51:40;;;;;;;7.78;2.60;;;7.30;99.90;;;;;;6008646;23;20472;-86
2021/12/19 09:58:01;;;;;;;8.27;2.78;;;7.20;99.90;;;;;;6006810;23;20020;-84
2021/12/19 10:04:37;;;;;;;10.27;3.80;;;7.80;99.90;;;;;;6007117;23;20265;-81
2021/12/19 10:07:23;;;;;;;13.50;3.47;;;7.30;99.90;;;;;;5983779;23;20460;-83
2021/12/19 10:10:12;;;;;;;12.45;3.72;;;7.90;99.90;;;;;;6087745;22;20252;-78
2021/12/19 10:16:34;;;;;;;16.00;6.72;;;8.40;99.90;;;;;;6212041;23;20405;-79
2021/12/19 10:19:12;;;;;;;9.73;3.60;;;8.50;99.90;;;;;;6185318;23;20020;-82
2021/12/19 10:21:47;;;;;;;8.80;2.97;;;7.90;99.90;;;;;;6187519;23;20016;-90
2021/12/19 10:24:36;;;;;;;13.35;3.80;;;9.20;99.90;;;;;;6186405;23;20060;-84
2021/12/19 10:28:17;;;;;;;10.82;3.42;;;7.80;99.90;;;;;;6121805;23;20366;-77
2021/12/19 10:31:12;;;;;;;12.23;3.42;;;7.90;99.90;;;;;;6015047;23;20023;-83
2021/12/19 10:33:41;;;;;;;8.55;2.42;;;7.80;99.90;;;;;;6048898;23;20016;-82
2021/12/19 10:36:28;;;;;;;9.00;3.10;;;7.80;99.90;;;;;;6049195;23;20055;-89
2021/12/19 10:39:17;;;;;;;10.57;2.65;;;7.00;99.90;;;;;;6047428;23;20019;-83
2021/12/19 10:42:00;;;;;;;9.60;2.80;;;7.80;99.90;;;;;;6168945;23;20020;-79
2021/12/19 10:52:30;;;;;;;7.32;2.20;;;7.20;99.90;;;;;;6215454;23;20015;-81
2021/12/19 10:55:24;;;;;;;;;;;;;;;;;;;;;
2021/12/19 10:59:04;;;;;;;9.75;2.50;;;8.00;99.90;;;;;;6152310;23;20016;-86
2021/12/19 11:04:54;;;;;;;12.32;3.20;;;7.90;99.90;;;;;;6210679;23;20035;-82
2021/12/19 11:11:50;;;;;;;11.80;2.97;;;7.90;99.90;;;;;;6225020;22;20121;-81
2021/12/19 11:57:25;;;;;;;12.77;3.65;;;9.10;99.90;;;;;;6222559;23;20020;-82
2021/12/19 12:03:49;;;;;;;12.88;3.65;;;8.40;99.90;;;;;;6243965;23;20509;-82
2021/12/19 12:06:19;;;;;;;11.23;2.50;;;8.10;99.90;;;;;;6216807;23;20113;-83
2021/12/19 12:09:03;;;;;;;9.95;2.80;;;8.10;99.90;;;;;;6217618;23;20016;-84
2021/12/19 12:11:29;;;;;;;11.80;2.83;;;8.20;99.90;;;;;;6216679;23;20514;-85
2021/12/19 12:14:15;;;;;;;;;;;8.20;99.90;;;;;;6218682;23;20051;-86
2021/12/19 12:17:19;;;;;;;14.80;5.35;;;8.20;99.90;;;;;;6217885;23;19919;-87
2021/12/19 12:19:51;;;;;;;10.50;2.90;;;8.20;99.90;;;;;;6216445;23;20020;-83
2021/12/19 12:22:29;;;;;;;13.98;2.85;;;8.20;99.90;;;;;;6217669;23;20022;-81
2021/12/19 12:25:07;;;;;;;7.90;2.30;;;8.30;99.90;;;;;;6244243;23;20035;-88
2021/12/19 12:27:47;;;;;;;12.75;2.63;;;8.30;99.90;;;;;;6217334;22;20044;-86
2021/12/19 12:59:23;;;;;;;12.43;3.65;;;7.90;99.90;;;;;;5989925;23;20342;-79
2021/12/19 13:09:35;;;;;;;8.93;3.20;;;9.10;99.90;;;;;;6090010;23;20048;-81
2021/12/19 13:16:43;;;;;;;;;;;;;;;;;;;;;
2021/12/19 13:27:47;;;;;;;10.73;2.88;;;8.30;99.90;;;;;;6033103;23;20230;-78
2021/12/19 13:46:07;;;;;;;14.75;4.15;;;8.30;99.90;;;;;;6029773;23;20354;-78
2021/12/19 13:52:25;;;;;;;16.35;3.75;;;7.00;99.90;;;;;;6030871;23;20085;-73
2021/12/19 13:55:25;;;;;;;9.45;2.53;;;8.20;99.90;;;;;;6029535;23;20122;-74
2021/12/19 13:58:04;;;;;;;5.10;1.83;;;8.30;99.90;;;;;;6100620;23;20022;-73
2021/12/19 14:00:34;;;;;;;8.93;1.63;;;8.30;99.90;;;;;;6089245;23;20022;-73
2021/12/19 14:03:01;;;;;;;12.93;4.70;;;8.30;99.90;;;;;;6191664;23;20030;-74
2021/12/19 14:05:38;;;;;;;7.90;2.08;;;8.20;99.90;;;;;;6192287;23;20023;-73
2021/12/19 14:08:27;;;;;;;5.05;2.00;;;8.30;99.90;;;;;;6195541;23;20018;-74
2021/12/19 14:11:12;;;;;;;15.43;11.15;;;8.10;99.90;;;;;;6194247;23;20076;-75
2021/12/19 14:13:41;;;;;;;10.73;6.00;;;8.10;99.90;;;;;;6193592;23;20022;-75
2021/12/19 14:16:10;;;;;;;8.80;3.40;;;8.10;99.90;;;;;;6194641;23;20037;-76
2021/12/19 14:39:15;;;;;;;11.98;2.60;;;9.10;99.90;;;;;;6220249;23;20095;-76
2021/12/19 14:41:42;;;;;;;11.02;3.30;;;8.00;99.90;;;;;;6220658;23;20016;-75
2021/12/19 14:44:21;;;;;;;8.02;3.00;;;8.00;99.90;;;;;;6219758;23;20059;-75
2021/12/19 14:46:52;;;;;;;9.68;2.80;;;8.00;99.90;;;;;;6220721;23;20020;-75
2021/12/19 14:49:22;;;;;;;11.35;2.83;;;8.10;99.90;;;;;;6248007;23;20027;-76
2021/12/19 14:52:00;;;;;;;9.98;3.15;;;8.10;99.90;;;;;;6246971;23;20051;-78
2021/12/19 14:54:25;;;;;;;11.02;2.47;;;8.00;99.90;;;;;;6220457;23;20475;-75
2021/12/19 14:56:51;;;;;;;;;;;8.10;99.90;;;;;;6221037;23;20019;-77
2021/12/19 14:59:17;;;;;;;12.45;5.60;;;8.10;99.90;;;;;;6221100;23;19916;-78
2021/12/19 15:01:43;;;;;;;7.85;2.95;;;8.10;99.90;;;;;;6218325;23;20460;-76
2021/12/19 15:04:10;;;;;;;;;;;8.10;99.90;;;;;;6220134;23;20024;-77
2021/12/19 15:06:42;;;;;;;8.75;2.67;;;8.10;99.90;;;;;;6218066;23;19915;-75
2021/12/19 15:09:14;;;;;;;11.80;2.70;;;8.10;99.90;;;;;;6247135;23;20012;-74
2021/12/19 15:11:41;;;;;;;14.18;8.45;;;8.10;99.90;;;;;;6220397;23;20012;-77
2021/12/19 15:31:58;;;;;;;9.02;2.75;;;7.90;99.90;;;;;;6153705;23;20516;-73
2021/12/19 15:38:00;;;;;;;7.22;1.52;;;7.90;99.90;;;;;;6035877;23;20371;-76
2021/12/19 16:02:45;;;;;;;4.45;1.42;;;8.70;99.90;;;;;;6000200;23;20063;-76
2021/12/19 17:13:37;;;;;;;8.32;3.08;;;6.90;99.90;;;;;;6242460;23;20328;-81
2021/12/19 17:19:41;;;;;;;10.48;2.50;;;7.60;99.90;;;;;;6250081;22;20054;-78
2021/12/19 17:22:19;;;;;;;7.97;2.22;;;8.40;99.90;;;;;;6201116;23;20030;-77
2021/12/19 17:31:34;;;;;;;12.07;2.90;;;7.60;99.90;;;;;;6215701;23;20057;-81
2021/12/19 17:34:00;;;;;;;12.07;3.20;;;7.60;99.90;;;;;;6216041;23;20352;-78
2021/12/19 17:36:50;;;;;;;;;;;7.70;99.90;;;;;;6218577;23;20011;-76
2021/12/19 17:39:26;;;;;;;8.77;2.78;;;7.20;99.90;;;;;;6238051;23;19919;-76
2021/12/19 17:42:10;;;;;;;9.98;2.70;;;7.60;99.90;;;;;;6216598;23;20020;-76
2021/12/19 17:48:14;;;;;;;9.23;2.63;;;6.80;99.90;;;;;;6243176;23;20074;-75
2021/12/19 17:50:40;;;;;;;10.98;6.45;;;7.50;99.90;;;;;;6216116;23;20056;-73
2021/12/19 17:53:06;;;;;;;;;;;7.50;99.90;;;;;;6217686;23;20027;-80
2021/12/19 17:55:31;;;;;;;17.13;8.25;;;7.60;99.90;;;;;;6217185;23;20307;-78
2021/12/19 17:58:03;;;;;;;14.07;6.53;;;7.50;99.90;;;;;;6217600;23;20020;-77
2021/12/19 18:00:29;;;;;;;11.45;4.47;;;7.50;99.90;;;;;;6217896;23;20020;-79
2021/12/19 18:02:55;;;;;;;;;;;7.60;99.90;;;;;;6216750;23;20027;-78
2021/12/19 18:05:24;;;;;;;17.80;5.13;;;7.60;99.90;;;;;;6214651;23;19916;-77
2021/12/19 18:07:49;;;;;;;14.85;4.70;;;7.60;99.90;;;;;;6216973;23;20055;-78
2021/12/19 18:10:17;;;;;;;;;;;7.60;99.90;;;;;;6217771;23;20437;-79
2021/12/19 18:12:43;;;;;;;14.75;4.43;;;7.60;99.90;;;;;;6244098;23;19919;-81
2021/12/19 18:15:17;;;;;;;;;;;7.60;99.90;;;;;;6217190;23;20513;-81
2021/12/19 18:17:43;;;;;;;20.80;4.00;;;7.60;99.90;;;;;;6217504;23;19915;-80
2021/12/19 18:20:35;;;;;;;14.98;3.30;;;7.60;99.90;;;;;;6216951;23;20047;-81
2021/12/19 18:23:00;;;;;;;13.85;3.17;;;7.60;99.90;;;;;;6212872;23;20112;-76
2021/12/19 18:25:26;;;;;;;;;;;7.60;99.90;;;;;;6214391;23;20242;-76
2021/12/19 18:27:53;;;;;;;15.00;3.28;;;7.60;99.90;;;;;;6241700;23;19920;-77
2021/12/19 18:30:49;;;;;;;15.13;3.20;;;7.60;99.90;;;;;;6211091;22;20017;-75
2021/12/19 19:01:24;;;;;;;15.95;3.80;;;7.20;99.90;;;;;;6219060;23;20032;-80
2021/12/19 19:04:11;;;;;;;15.75;3.13;;;7.40;99.90;;;;;;6216096;23;20024;-79
2021/12/19 19:06:48;;;;;;;19.50;3.30;;;7.30;99.90;;;;;;6215026;23;20012;-81
2021/12/19 19:09:19;;;;;;;16.92;3.28;;;7.30;99.90;;;;;;6223502;23;20344;-82
2021/12/19 19:11:46;;;;;;;12.82;3.30;;;7.40;99.90;;;;;;6223446;23;20110;-80
2021/12/19 19:14:13;;;;;;;20.67;3.22;;;7.30;99.90;;;;;;6221528;23;20448;-77
2021/12/19 19:16:39;;;;;;;16.85;3.78;;;7.30;99.90;;;;;;6219255;23;20016;-77
2021/12/19 19:19:08;;;;;;;19.70;5.65;;;7.30;99.90;;;;;;6215283;23;20016;-77
2021/12/19 19:21:36;;;;;;;17.80;3.22;;;7.30;99.90;;;;;;6218868;23;20070;-75
2021/12/19 19:24:10;;;;;;;21.33;4.93;;;7.30;99.90;;;;;;6217587;22;20066;-76
2021/12/19 19:27:03;;;;;;;19.60;5.50;;;7.30;99.90;;;;;;6217660;23;20017;-78
2021/12/19 19:32:46;;;;;;;20.30;5.97;;;7.60;99.90;;;;;;6244006;22;20027;-78
2021/12/19 19:35:37;;;;;;;14.77;4.03;;;9.70;99.90;;;;;;6217812;23;20720;-76
2021/12/19 19:41:43;;;;;;;15.93;3.63;;;6.10;99.90;;;;;;6216994;23;20394;-75
2021/12/19 19:51:11;;;;;;;11.90;3.58;;;7.10;99.90;;;;;;6217904;23;20082;-77
2021/12/19 19:54:10;;;;;;;;;;;7.10;99.90;;;;;;6217918;23;20004;-78
2021/12/19 19:59:34;;;;;;;;;;;6.70;99.90;;;;;;6209866;23;20027;-75
2021/12/19 20:02:22;;;;;;;17.47;4.43;;;6.70;99.90;;;;;;6217386;23;19922;-80
2021/12/19 20:05:03;;;;;;;13.32;3.70;;;6.40;99.90;;;;;;6217965;23;20020;-77
2021/12/19 20:08:00;;;;;;;21.23;4.00;;;7.10;99.90;;;;;;6217505;23;20449;-80
2021/12/19 20:10:41;;;;;;;19.47;4.10;;;7.10;99.90;;;;;;6215467;23;20020;-76
2021/12/19 20:17:19;;;;;;;18.58;6.05;;;7.10;99.90;;;;;;6182126;23;20020;-75
2021/12/19 20:19:47;;;;;;;21.88;5.65;;;7.20;99.90;;;;;;6156868;23;20024;-76
2021/12/19 20:22:24;;;;;;;;;;;;;;;;;;;;;
2021/12/19 20:25:00;;;;;;;18.48;6.53;;;7.00;99.90;;;;;;6183110;23;20019;-77
2021/12/19 20:27:35;;;;;;;17.13;4.45;;;7.10;99.90;;;;;;6217034;23;20085;-77
2021/12/19 20:30:02;;;;;;;14.55;3.33;;;7.30;99.90;;;;;;6216534;23;20016;-78
2021/12/19 20:39:47;;;;;;;17.23;5.00;;;8.50;99.90;;;;;;6151743;23;20022;-76
2021/12/19 20:42:40;;;;;;;17.70;4.70;;;7.00;99.90;;;;;;6170222;22;20095;-77
2021/12/19 20:45:10;;;;;;;20.42;3.83;;;7.00;99.90;;;;;;6218841;23;20464;-78
2021/12/19 22:02:51;;;;;;;17.52;3.25;;;6.90;99.90;;;;;;6228661;22;20087;-77
2021/12/19 22:16:44;;;;;;;14.40;3.72;;;6.80;99.90;;;;;;6155327;23;20025;-77
2021/12/19 22:19:12;;;;;;;12.35;3.60;;;6.60;99.90;;;;;;6157058;23;20377;-77
2021/12/19 22:21:39;;;;;;;22.83;12.70;;;6.80;99.90;;;;;;6156950;23;20344;-77
2021/12/19 22:29:15;;;;;;;14.00;5.50;;;6.70;99.90;;;;;;6211272;22;20035;-77
2021/12/19 22:36:08;;;;;;;12.85;4.65;;;5.80;99.90;;;;;;6214971;23;19911;-77
2021/12/19 22:39:42;;;;;;;20.20;3.05;;;6.10;99.90;;;;;;6214320;23;20492;-78
2021/12/19 22:50:53;;;;;;;10.07;2.60;;;5.80;99.90;;;;;;6245350;23;20091;-77
2021/12/19 22:53:19;;;;;;;12.68;2.72;;;6.60;99.90;;;;;;6218772;23;20020;-77
2021/12/19 22:55:45;;;;;;;;;;;6.60;99.90;;;;;;6218277;23;20058;-77
2021/12/19 22:58:11;;;;;;;18.60;2.70;;;6.60;99.90;;;;;;6218566;23;19926;-77
2021/12/19 23:00:45;;;;;;;;;;;6.60;99.90;;;;;;6220012;23;20020;-77
2021/12/19 23:03:13;;;;;;;13.95;3.30;;;6.60;99.90;;;;;;6218923;23;20286;-77
2021/12/19 23:05:42;;;;;;;11.38;2.40;;;6.50;99.90;;;;;;6219212;23;20065;-77
2021/12/19 23:08:09;;;;;;;9.73;2.90;;;6.50;99.90;;;;;;6219317;23;20099;-77
2021/12/19 23:10:46;;;;;;;12.52;3.15;;;6.50;99.90;;;;;;6218712;23;20016;-77
2021/12/19 23:13:24;;;;;;;10.68;2.47;;;6.50;99.90;;;;;;6218642;23;20062;-77
2021/12/19 23:15:57;;;;;;;14.13;3.42;;;6.50;99.90;;;;;;6219332;23;20047;-78
2021/12/19 23:18:24;;;;;;;13.15;2.75;;;6.40;99.90;;;;;;6218308;23;20348;-78
2021/12/19 23:20:55;;;;;;;9.38;3.10;;;6.40;99.90;;;;;;6219506;23;20073;-78
2021/12/19 23:23:24;;;;;;;11.02;2.75;;;6.40;99.90;;;;;;6218665;23;20095;-77
2021/12/19 23:25:50;;;;;;;15.35;2.70;;;6.40;99.90;;;;;;6218675;23;20026;-78
2021/12/19 23:28:18;;;;;;;;;;;6.40;99.90;;;;;;6218960;23;20016;-77
2021/12/19 23:30:44;;;;;;;11.55;2.42;;;6.40;99.90;;;;;;6219252;23;19916;-77
2021/12/19 23:35:59;;;;;;;11.63;2.88;;;6.40;99.90;;;;;;6219625;23;19915;-77
2021/12/19 23:46:05;;;;;;;11.88;2.65;;;6.40;99.90;;;;;;6218198;23;20490;-77
2021/12/19 23:48:31;;;;;;;;;;;6.40;99.90;;;;;;6218927;23;20026;-77
2021/12/19 23:50:56;;;;;;;12.85;2.65;;;6.40;99.90;;;;;;6219136;23;20243;-77
2021/12/19 23:53:47;;;;;;;;;;;6.50;99.90;;;;;;6217802;22;20016;-77
2021/12/19 23:57:04;;;;;;;11.13;2.72;;;6.60;99.90;;;;;;6244056;23;19915;-77
